Time,TemperatureF,DewpointF,PressureIn,WindDirection,WindDirectionDegrees,WindSpeedMPH,WindSpeedGustMPH,Humidity,HourlyPrecipIn,Conditions,Clouds,dailyrainin,SoftwareType,DateUTC
2013-01-30 00:02:00,63.6,58.3,29.54,South,179,23.0,23.0,83,0.00,RA,,0.00,WeatherDisplay:10.37,2013-01-30 05:02:00,
2013-01-30 00:03:00,63.5,58.2,29.54,South,169,22.0,22.0,83,0.00,RA,,0.00,WeatherDisplay:10.37,2013-01-30 05:03:00,
2013-01-30 00:08:00,63.5,58.2,29.54,South,178,26.5,26.5,83,0.00,RA,,0.00,WeatherDisplay:10.37,2013-01-30 05:08:00,
2013-01-30 00:13:00,63.5,58.2,29.53,SSE,159,26.5,26.5,83,0.00,CLR,,0.00,WeatherDisplay:10.37,2013-01-30 05:13:00,
2013-01-30 00:18:00,63.4,58.1,29.52,South,184,28.0,28.0,83,0.00,CLR,,0.00,WeatherDisplay:10.37,2013-01-30 05:18:00,
2013-01-30 00:23:00,63.2,57.9,29.52,South,179,22.0,22.0,83,0.00,CLR,,0.00,WeatherDisplay:10.37,2013-01-30 05:23:00,
2013-01-30 00:28:00,63.2,58.3,29.52,South,180,21.9,21.9,84,0.00,CLR,,0.00,WeatherDisplay:10.37,2013-01-30 05:28:00,
2013-01-30 00:33:00,63.0,58.1,29.51,South,169,19.6,19.6,84,0.00,CLR,,0.00,WeatherDisplay:10.37,2013-01-30 05:33:00,
2013-01-30 00:38:00,62.9,58.0,29.50,SSE,157,21.9,21.9,84,0.00,CLR,,0.00,WeatherDisplay:10.37,2013-01-30 05:38:00,
2013-01-30 00:43:00,63.0,58.1,29.50,South,171,24.0,24.0,84,0.00,CLR,,0.00,WeatherDisplay:10.37,2013-01-30 05:43:00,
2013-01-30 00:48:00,62.9,58.0,29.50,SSE,163,18.4,18.4,84,0.00,CLR,,0.00,WeatherDisplay:10.37,2013-01-30 05:48:00,
2013-01-30 00:53:00,63.1,57.9,29.49,SSE,157,18.0,18.0,83,0.00,CLR,,0.00,WeatherDisplay:10.37,2013-01-30 05:53:00,
2013-01-30 00:58:00,63.6,58.3,29.49,SSE,148,20.7,20.7,83,0.00,CLR,,0.00,WeatherDisplay:10.37,2013-01-30 05:58:00,
2013-01-30 01:03:00,63.9,58.3,29.49,South,173,22.0,22.0,82,0.00,CLR,,0.00,WeatherDisplay:10.37,2013-01-30 06:03:00,
2013-01-30 01:08:00,64.2,58.6,29.49,SSE,153,19.6,19.6,82,0.00,CLR,,0.00,WeatherDisplay:10.37,2013-01-30 06:08:00,
2013-01-30 01:13:00,64.1,58.5,29.49,South,174,22.0,22.0,82,0.00,CLR,,0.00,WeatherDisplay:10.37,2013-01-30 06:13:00,
2013-01-30 01:18:00,64.5,58.5,29.48,SSE,167,20.7,20.7,81,0.00,CLR,,0.00,WeatherDisplay:10.37,2013-01-30 06:18:00,
2013-01-30 01:23:00,64.6,58.3,29.48,SSE,157,23.0,23.0,80,0.00,CLR,,0.00,WeatherDisplay:10.37,2013-01-30 06:23:00,
2013-01-30 01:28:00,64.6,58.3,29.47,South,173,23.0,23.0,80,0.00,CLR,,0.00,WeatherDisplay:10.37,2013-01-30 06:28:00,
2013-01-30 01:33:00,64.5,58.2,29.47,South,181,29.9,29.9,80,0.00,CLR,,0.00,WeatherDisplay:10.37,2013-01-30 06:33:00,
2013-01-30 01:38:00,64.6,58.3,29.47,South,182,23.0,23.0,80,0.00,CLR,,0.00,WeatherDisplay:10.37,2013-01-30 06:38:00,
2013-01-30 01:43:00,64.5,58.2,29.46,South,181,26.5,26.5,80,0.00,CLR,,0.00,WeatherDisplay:10.37,2013-01-30 06:43:00,
2013-01-30 01:48:00,64.4,58.1,29.45,South,190,21.9,21.9,80,0.00,CLR,,0.00,WeatherDisplay:10.37,2013-01-30 06:48:00,
2013-01-30 01:53:00,64.4,58.1,29.45,South,169,23.0,23.0,80,0.00,CLR,,0.00,WeatherDisplay:10.37,2013-01-30 06:53:00,
2013-01-30 01:58:00,64.4,58.1,29.44,SSE,167,24.2,24.2,80,0.00,CLR,,0.00,WeatherDisplay:10.37,2013-01-30 06:58:00,
2013-01-30 02:03:00,64.1,57.8,29.44,SSE,165,25.3,25.3,80,0.00,CLR,,0.00,WeatherDisplay:10.37,2013-01-30 07:03:00,
2013-01-30 02:08:00,64.1,57.8,29.44,South,174,26.5,26.5,80,0.00,CLR,,0.00,WeatherDisplay:10.37,2013-01-30 07:08:00,
2013-01-30 02:13:00,64.0,57.7,29.44,SSE,150,21.9,21.9,80,0.00,CLR,,0.00,WeatherDisplay:10.37,2013-01-30 07:13:00,
2013-01-30 02:18:00,64.2,57.9,29.44,South,175,31.1,31.1,80,0.00,CLR,,0.00,WeatherDisplay:10.37,2013-01-30 07:18:00,
2013-01-30 02:23:00,64.1,57.8,29.43,South,181,20.0,20.0,80,0.00,CLR,,0.00,WeatherDisplay:10.37,2013-01-30 07:23:00,
2013-01-30 02:29:00,64.0,57.7,29.43,South,173,23.0,23.0,80,0.00,CLR,,0.00,WeatherDisplay:10.37,2013-01-30 07:29:00,
2013-01-30 02:34:00,64.0,57.7,29.43,South,186,27.6,27.6,80,0.00,CLR,,0.00,WeatherDisplay:10.37,2013-01-30 07:34:00,
2013-01-30 02:39:00,64.2,57.9,29.43,SSE,166,27.6,27.6,80,0.00,CLR,,0.00,WeatherDisplay:10.37,2013-01-30 07:39:00,
2013-01-30 02:44:00,64.1,57.8,29.43,South,187,21.9,21.9,80,0.00,CLR,,0.00,WeatherDisplay:10.37,2013-01-30 07:44:00,
2013-01-30 02:49:00,64.1,57.8,29.43,SSE,167,25.3,25.3,80,0.00,CLR,,0.00,WeatherDisplay:10.37,2013-01-30 07:49:00,
2013-01-30 02:54:00,64.3,58.0,29.43,South,180,21.9,21.9,80,0.00,CLR,,0.00,WeatherDisplay:10.37,2013-01-30 07:54:00,
2013-01-30 02:59:00,64.4,58.1,29.42,South,182,19.6,19.6,80,0.00,CLR,,0.00,WeatherDisplay:10.37,2013-01-30 07:59:00,
2013-01-30 03:04:00,64.7,58.0,29.42,South,190,19.6,19.6,79,0.00,CLR,,0.00,WeatherDisplay:10.37,2013-01-30 08:04:00,
2013-01-30 03:09:00,64.3,58.0,29.41,South,175,19.6,19.6,80,0.00,CLR,,0.00,WeatherDisplay:10.37,2013-01-30 08:09:00,
2013-01-30 03:14:00,64.4,58.1,29.41,SSW,193,19.6,19.6,80,0.00,CLR,,0.00,WeatherDisplay:10.37,2013-01-30 08:14:00,
2013-01-30 03:19:00,64.5,58.2,29.41,SSE,163,25.3,25.3,80,0.00,CLR,,0.00,WeatherDisplay:10.37,2013-01-30 08:19:00,
2013-01-30 03:24:00,64.7,58.0,29.40,SSE,155,19.6,19.6,79,0.00,CLR,,0.00,WeatherDisplay:10.37,2013-01-30 08:24:00,
2013-01-30 03:29:00,64.9,58.2,29.40,South,180,26.5,26.5,79,0.00,CLR,,0.00,WeatherDisplay:10.37,2013-01-30 08:29:00,
2013-01-30 03:34:00,65.2,58.2,29.39,SSE,163,21.9,21.9,78,0.00,CLR,,0.00,WeatherDisplay:10.37,2013-01-30 08:34:00,
2013-01-30 03:39:00,65.1,58.1,29.39,South,175,25.3,25.3,78,0.00,CLR,,0.00,WeatherDisplay:10.37,2013-01-30 08:39:00,
2013-01-30 03:44:00,65.2,58.5,29.39,South,175,27.6,27.6,79,0.00,CLR,,0.00,WeatherDisplay:10.37,2013-01-30 08:44:00,
2013-01-30 03:49:00,65.3,58.3,29.39,SSW,194,25.3,25.3,78,0.00,CLR,,0.00,WeatherDisplay:10.37,2013-01-30 08:49:00,
2013-01-30 03:54:00,65.3,58.3,29.39,SSW,201,21.9,21.9,78,0.00,CLR,,0.00,WeatherDisplay:10.37,2013-01-30 08:54:00,
2013-01-30 03:59:00,65.4,58.4,29.39,SSE,163,24.2,24.2,78,0.00,CLR,,0.00,WeatherDisplay:10.37,2013-01-30 08:59:00,
2013-01-30 04:04:00,65.5,58.5,29.38,SSW,195,20.7,20.7,78,0.00,CLR,,0.00,WeatherDisplay:10.37,2013-01-30 09:04:00,
2013-01-30 04:09:00,65.6,58.6,29.38,South,179,24.2,24.2,78,0.00,CLR,,0.00,WeatherDisplay:10.37,2013-01-30 09:09:00,
2013-01-30 04:14:00,65.4,58.4,29.38,SSW,194,24.0,24.0,78,0.00,CLR,,0.00,WeatherDisplay:10.37,2013-01-30 09:14:00,
2013-01-30 04:19:00,65.5,58.5,29.37,South,182,21.9,21.9,78,0.00,CLR,,0.00,WeatherDisplay:10.37,2013-01-30 09:19:00,
2013-01-30 04:24:00,65.6,58.6,29.37,South,188,23.0,23.0,78,0.00,CLR,,0.00,WeatherDisplay:10.37,2013-01-30 09:24:00,
2013-01-30 04:29:00,65.6,58.6,29.36,South,175,19.6,19.6,78,0.00,CLR,,0.00,WeatherDisplay:10.37,2013-01-30 09:29:00,
2013-01-30 04:34:00,65.8,58.7,29.35,SSE,165,21.9,21.9,78,0.00,CLR,,0.00,WeatherDisplay:10.37,2013-01-30 09:34:00,
2013-01-30 04:39:00,65.8,58.7,29.34,South,179,24.2,24.2,78,0.00,CLR,,0.00,WeatherDisplay:10.37,2013-01-30 09:39:00,
2013-01-30 04:44:00,65.9,58.8,29.34,South,171,23.0,23.0,78,0.00,CLR,,0.00,WeatherDisplay:10.37,2013-01-30 09:44:00,
2013-01-30 04:49:00,65.9,58.8,29.34,South,171,21.9,21.9,78,0.00,CLR,,0.00,WeatherDisplay:10.37,2013-01-30 09:49:00,
2013-01-30 04:54:00,65.8,58.7,29.33,South,172,29.9,29.9,78,0.00,CLR,,0.00,WeatherDisplay:10.37,2013-01-30 09:54:00,
2013-01-30 04:59:00,66.0,58.9,29.32,South,190,25.3,25.3,78,0.00,CLR,,0.00,WeatherDisplay:10.37,2013-01-30 09:59:00,
2013-01-30 05:04:00,66.1,58.7,29.32,South,176,29.9,29.9,77,0.00,CLR,,0.00,WeatherDisplay:10.37,2013-01-30 10:04:00,
2013-01-30 05:09:00,66.0,58.9,29.31,South,186,22.0,22.0,78,0.00,CLR,,0.00,WeatherDisplay:10.37,2013-01-30 10:09:00,
2013-01-30 05:14:00,65.9,58.8,29.31,South,183,23.0,23.0,78,0.00,CLR,,0.00,WeatherDisplay:10.37,2013-01-30 10:14:00,
2013-01-30 05:19:00,65.8,59.1,29.30,South,175,26.5,26.5,79,0.00,CLR,,0.00,WeatherDisplay:10.37,2013-01-30 10:19:00,
2013-01-30 05:24:00,65.4,59.1,29.30,South,172,29.9,29.9,80,0.00,CLR,,0.00,WeatherDisplay:10.37,2013-01-30 10:24:00,
2013-01-30 05:29:00,65.5,59.2,29.30,SSW,196,23.0,23.0,80,0.00,CLR,,0.00,WeatherDisplay:10.37,2013-01-30 10:29:00,
2013-01-30 05:34:00,65.5,59.2,29.30,South,178,25.3,25.3,80,0.00,CLR,,0.00,WeatherDisplay:10.37,2013-01-30 10:34:00,
2013-01-30 05:39:00,64.7,57.7,29.32,WNW,299,13.8,13.8,78,0.00,CLR,,0.00,WeatherDisplay:10.37,2013-01-30 10:39:00,
2013-01-30 05:44:00,58.9,53.4,29.33,West,277,20.7,20.7,82,0.01,RA,,0.02,WeatherDisplay:10.37,2013-01-30 10:44:00,
2013-01-30 05:49:00,55.7,52.2,29.36,WSW,247,10.4,10.4,88,0.12,RA,,0.13,WeatherDisplay:10.37,2013-01-30 10:49:00,
2013-01-30 05:54:00,54.5,51.6,29.35,NW,312,18.4,18.4,90,0.16,RA,,0.16,WeatherDisplay:10.37,2013-01-30 10:54:00,
2013-01-30 05:59:00,53.6,51.0,29.35,NW,307,19.6,19.6,91,0.24,RA,,0.24,WeatherDisplay:10.37,2013-01-30 10:59:00,
2013-01-30 06:04:00,52.9,50.6,29.35,NW,317,17.3,17.3,92,0.28,RA,,0.28,WeatherDisplay:10.37,2013-01-30 11:04:00,
2013-01-30 06:09:00,52.6,50.6,29.35,WNW,298,18.4,18.4,93,0.32,RA,,0.32,WeatherDisplay:10.37,2013-01-30 11:09:00,
2013-01-30 06:14:00,52.4,50.4,29.35,NW,317,18.4,18.4,93,0.34,RA,,0.34,WeatherDisplay:10.37,2013-01-30 11:14:00,
2013-01-30 06:19:00,52.4,50.7,29.37,WNW,288,18.4,18.4,94,0.35,RA,,0.35,WeatherDisplay:10.37,2013-01-30 11:19:00,
2013-01-30 06:24:00,52.3,50.6,29.37,WNW,302,14.0,14.0,94,0.36,RA,,0.36,WeatherDisplay:10.37,2013-01-30 11:24:00,
2013-01-30 06:29:00,52.2,50.5,29.39,WNW,294,13.8,13.8,94,0.38,RA,,0.38,WeatherDisplay:10.37,2013-01-30 11:29:00,
2013-01-30 06:34:00,52.2,50.5,29.40,WNW,292,18.0,18.0,94,0.39,RA,,0.39,WeatherDisplay:10.37,2013-01-30 11:34:00,
2013-01-30 06:39:00,52.1,50.4,29.42,WNW,298,19.6,19.6,94,0.41,RA,,0.41,WeatherDisplay:10.37,2013-01-30 11:39:00,
2013-01-30 06:44:00,52.0,50.3,29.42,West,275,19.6,19.6,94,0.41,RA,,0.42,WeatherDisplay:10.37,2013-01-30 11:44:00,
2013-01-30 06:49:00,51.9,50.2,29.42,WNW,300,15.0,15.0,94,0.31,RA,,0.43,WeatherDisplay:10.37,2013-01-30 11:49:00,
2013-01-30 06:54:00,51.9,50.2,29.42,WNW,294,15.0,15.0,94,0.28,RA,,0.44,WeatherDisplay:10.37,2013-01-30 11:54:00,
2013-01-30 06:59:00,52.0,50.3,29.43,WNW,297,13.8,13.8,94,0.22,RA,,0.46,WeatherDisplay:10.37,2013-01-30 11:59:00,
2013-01-30 07:04:00,52.0,50.3,29.44,WNW,300,12.0,12.0,94,0.19,RA,,0.47,WeatherDisplay:10.37,2013-01-30 12:04:00,
2013-01-30 07:09:00,52.0,50.3,29.42,NNW,335,8.1,8.1,94,0.16,RA,,0.48,WeatherDisplay:10.37,2013-01-30 12:09:00,
2013-01-30 07:14:00,51.9,50.2,29.43,NNW,331,3.5,3.5,94,0.15,RA,,0.49,WeatherDisplay:10.37,2013-01-30 12:14:00,
2013-01-30 07:19:00,51.9,50.2,29.42,NNW,331,3.5,3.5,94,0.16,RA,,0.51,WeatherDisplay:10.37,2013-01-30 12:19:00,
2013-01-30 07:24:00,51.8,50.1,29.42,NNW,331,0.0,0.0,94,0.16,RA,,0.52,WeatherDisplay:10.37,2013-01-30 12:24:00,
2013-01-30 07:29:00,51.8,50.1,29.40,NNW,331,1.1,1.1,94,0.15,RA,,0.53,WeatherDisplay:10.37,2013-01-30 12:29:00,
2013-01-30 07:34:00,51.7,50.0,29.39,NNW,331,2.3,2.3,94,0.15,RA,,0.55,WeatherDisplay:10.37,2013-01-30 12:34:00,
2013-01-30 07:39:00,51.6,49.9,29.38,NNW,331,3.5,3.5,94,0.14,RA,,0.55,WeatherDisplay:10.37,2013-01-30 12:39:00,
2013-01-30 07:44:00,51.6,49.9,29.37,North,355,3.5,3.5,94,0.14,RA,,0.56,WeatherDisplay:10.37,2013-01-30 12:44:00,
2013-01-30 07:49:00,51.5,49.8,29.37,East,93,3.5,3.5,94,0.13,RA,,0.56,WeatherDisplay:10.37,2013-01-30 12:49:00,
2013-01-30 07:54:00,51.4,50.0,29.38,ESE,104,3.5,3.5,95,0.12,CLR,,0.56,WeatherDisplay:10.37,2013-01-30 12:54:00,
2013-01-30 07:59:00,51.4,50.0,29.38,SE,144,4.6,4.6,95,0.10,CLR,,0.56,WeatherDisplay:10.37,2013-01-30 12:59:00,
2013-01-30 08:04:00,51.4,50.0,29.39,SE,140,6.0,6.0,95,0.10,RA,,0.57,WeatherDisplay:10.37,2013-01-30 13:04:00,
2013-01-30 08:09:00,51.5,50.1,29.40,SSE,150,8.1,8.1,95,0.09,RA,,0.57,WeatherDisplay:10.37,2013-01-30 13:09:00,
2013-01-30 08:14:00,51.5,50.1,29.40,South,174,10.4,10.4,95,0.08,CLR,,0.57,WeatherDisplay:10.37,2013-01-30 13:14:00,
2013-01-30 08:19:00,51.5,50.1,29.41,SSE,155,8.1,8.1,95,0.06,CLR,,0.57,WeatherDisplay:10.37,2013-01-30 13:19:00,
2013-01-30 08:24:00,51.5,50.1,29.41,SSE,150,6.9,6.9,95,0.05,CLR,,0.57,WeatherDisplay:10.37,2013-01-30 13:24:00,
2013-01-30 08:29:00,51.5,50.1,29.41,SSE,156,6.9,6.9,95,0.04,CLR,,0.57,WeatherDisplay:10.37,2013-01-30 13:29:00,
2013-01-30 08:34:00,51.5,50.1,29.41,SSE,151,6.0,6.0,95,0.04,RA,,0.58,WeatherDisplay:10.37,2013-01-30 13:34:00,
2013-01-30 08:39:00,51.5,50.1,29.39,SE,138,9.2,9.2,95,0.03,RA,,0.58,WeatherDisplay:10.37,2013-01-30 13:39:00,
2013-01-30 08:44:00,51.6,50.2,29.40,SE,143,6.9,6.9,95,0.02,,,0.58,WeatherDisplay:10.37,2013-01-30 13:44:00,
2013-01-30 08:49:00,51.6,50.2,29.40,SE,132,6.9,6.9,95,0.03,RA,,0.59,WeatherDisplay:10.37,2013-01-30 13:49:00,
2013-01-30 08:54:00,51.7,50.3,29.39,SE,144,10.4,10.4,95,0.03,RA,,0.59,WeatherDisplay:10.37,2013-01-30 13:54:00,
2013-01-30 08:59:00,51.7,50.3,29.36,SE,136,10.4,10.4,95,0.03,CLR,,0.59,WeatherDisplay:10.37,2013-01-30 13:59:00,
2013-01-30 09:04:00,51.8,50.4,29.36,SE,134,10.4,10.4,95,0.02,CLR,,0.59,WeatherDisplay:10.37,2013-01-30 14:04:00,
2013-01-30 09:09:00,51.9,50.5,29.36,SSE,163,10.4,10.4,95,0.02,CLR,,0.59,WeatherDisplay:10.37,2013-01-30 14:09:00,
2013-01-30 09:14:00,52.0,50.6,29.37,SSE,166,11.5,11.5,95,0.02,CLR,,0.59,WeatherDisplay:10.37,2013-01-30 14:14:00,
2013-01-30 09:19:00,52.1,50.7,29.38,SSE,153,11.5,11.5,95,0.02,CLR,,0.59,WeatherDisplay:10.37,2013-01-30 14:19:00,
2013-01-30 09:24:00,52.3,50.9,29.38,South,169,13.0,13.0,95,0.02,CLR,,0.59,WeatherDisplay:10.37,2013-01-30 14:24:00,
2013-01-30 09:29:00,52.5,51.1,29.38,SSE,167,16.1,16.1,95,0.02,CLR,,0.59,WeatherDisplay:10.37,2013-01-30 14:29:00,
2013-01-30 09:34:00,52.7,51.3,29.39,South,170,15.0,15.0,95,0.01,CLR,,0.59,WeatherDisplay:10.37,2013-01-30 14:34:00,
2013-01-30 09:39:00,52.9,51.2,29.38,South,181,15.0,15.0,94,0.01,CLR,,0.59,WeatherDisplay:10.37,2013-01-30 14:39:00,
2013-01-30 09:44:00,53.2,51.5,29.39,South,171,18.4,18.4,94,0.01,CLR,,0.59,WeatherDisplay:10.37,2013-01-30 14:44:00,
2013-01-30 09:49:00,53.5,51.5,29.39,South,183,19.6,19.6,93,0.00,CLR,,0.59,WeatherDisplay:10.37,2013-01-30 14:49:00,
2013-01-30 09:54:00,53.7,51.4,29.35,SSE,160,19.6,19.6,92,0.00,CLR,,0.59,WeatherDisplay:10.37,2013-01-30 14:54:00,
2013-01-30 09:59:00,53.8,51.2,29.35,SE,140,15.0,15.0,91,0.00,CLR,,0.59,WeatherDisplay:10.37,2013-01-30 14:59:00,
2013-01-30 10:04:00,53.9,51.3,29.34,SE,141,19.6,19.6,91,0.00,CLR,,0.59,WeatherDisplay:10.37,2013-01-30 15:04:00,
2013-01-30 10:09:00,54.0,51.4,29.34,SSE,157,19.6,19.6,91,0.00,CLR,,0.59,WeatherDisplay:10.37,2013-01-30 15:09:00,
2013-01-30 10:14:00,54.1,51.2,29.33,SSE,160,18.4,18.4,90,0.00,CLR,,0.59,WeatherDisplay:10.37,2013-01-30 15:14:00,
2013-01-30 10:19:00,54.2,51.3,29.33,SSE,167,19.6,19.6,90,0.00,CLR,,0.59,WeatherDisplay:10.37,2013-01-30 15:19:00,
2013-01-30 10:24:00,54.4,51.2,29.33,South,182,15.0,15.0,89,0.00,CLR,,0.59,WeatherDisplay:10.37,2013-01-30 15:24:00,
2013-01-30 10:29:00,54.5,51.3,29.34,SSE,163,18.4,18.4,89,0.00,CLR,,0.59,WeatherDisplay:10.37,2013-01-30 15:29:00,
2013-01-30 10:34:00,54.7,51.2,29.36,South,180,20.7,20.7,88,0.00,CLR,,0.59,WeatherDisplay:10.37,2013-01-30 15:34:00,
2013-01-30 10:39:00,54.9,51.4,29.33,South,173,20.7,20.7,88,0.00,CLR,,0.59,WeatherDisplay:10.37,2013-01-30 15:39:00,
2013-01-30 10:44:00,54.7,51.2,29.31,SE,141,15.0,15.0,88,0.00,CLR,,0.59,WeatherDisplay:10.37,2013-01-30 15:44:00,
2013-01-30 10:49:00,54.6,51.1,29.31,SSE,153,12.7,12.7,88,0.00,CLR,,0.59,WeatherDisplay:10.37,2013-01-30 15:49:00,
2013-01-30 10:54:00,54.5,51.0,29.31,South,187,14.0,14.0,88,0.00,CLR,,0.59,WeatherDisplay:10.37,2013-01-30 15:54:00,
2013-01-30 10:59:00,54.6,51.1,29.33,South,175,13.8,13.8,88,0.00,CLR,,0.59,WeatherDisplay:10.37,2013-01-30 15:59:00,
2013-01-30 11:04:00,54.9,51.4,29.33,South,180,16.1,16.1,88,0.00,CLR,,0.59,WeatherDisplay:10.37,2013-01-30 16:04:00,
2013-01-30 11:09:00,55.0,51.2,29.34,South,175,15.0,15.0,87,0.00,CLR,,0.59,WeatherDisplay:10.37,2013-01-30 16:09:00,
2013-01-30 11:14:00,55.1,51.3,29.34,South,190,13.8,13.8,87,0.00,CLR,,0.59,WeatherDisplay:10.37,2013-01-30 16:14:00,
2013-01-30 11:19:00,55.5,51.1,29.34,South,182,22.0,22.0,85,0.00,CLR,,0.59,WeatherDisplay:10.37,2013-01-30 16:19:00,
2013-01-30 11:24:00,55.9,51.1,29.33,South,173,23.0,23.0,84,0.00,CLR,,0.59,WeatherDisplay:10.37,2013-01-30 16:24:00,
2013-01-30 11:29:00,55.9,51.1,29.33,South,188,20.0,20.0,84,0.00,CLR,,0.59,WeatherDisplay:10.37,2013-01-30 16:29:00,
2013-01-30 11:34:00,56.0,50.9,29.33,South,187,23.0,23.0,83,0.00,CLR,,0.59,WeatherDisplay:10.37,2013-01-30 16:34:00,
2013-01-30 11:40:00,56.0,50.9,29.33,South,186,19.6,19.6,83,0.00,CLR,,0.59,WeatherDisplay:10.37,2013-01-30 16:40:00,
2013-01-30 11:45:00,55.9,51.1,29.33,South,190,18.4,18.4,84,0.00,CLR,,0.59,WeatherDisplay:10.37,2013-01-30 16:45:00,
2013-01-30 11:50:00,55.9,51.1,29.32,SSW,194,20.7,20.7,84,0.00,CLR,,0.59,WeatherDisplay:10.37,2013-01-30 16:50:00,
2013-01-30 11:55:00,56.0,51.2,29.32,SSW,199,19.6,19.6,84,0.00,CLR,,0.59,WeatherDisplay:10.37,2013-01-30 16:55:00,
2013-01-30 12:00:00,55.9,51.1,29.32,South,184,21.9,21.9,84,0.00,CLR,,0.59,WeatherDisplay:10.37,2013-01-30 17:00:00,
2013-01-30 12:05:00,55.9,51.1,29.31,SSW,200,20.7,20.7,84,0.00,CLR,,0.59,WeatherDisplay:10.37,2013-01-30 17:05:00,
2013-01-30 12:10:00,55.9,51.1,29.31,SW,217,18.4,18.4,84,0.00,CLR,,0.59,WeatherDisplay:10.37,2013-01-30 17:10:00,
2013-01-30 12:15:00,56.1,51.3,29.34,SSW,197,32.2,32.2,84,0.00,CLR,,0.59,WeatherDisplay:10.37,2013-01-30 17:15:00,
2013-01-30 12:20:00,56.2,51.4,29.33,SW,218,24.2,24.2,84,0.00,CLR,,0.59,WeatherDisplay:10.37,2013-01-30 17:20:00,
2013-01-30 12:25:00,56.2,51.1,29.33,SSW,193,21.0,21.0,83,0.00,RA,,0.59,WeatherDisplay:10.37,2013-01-30 17:25:00,
2013-01-30 12:30:00,56.1,51.0,29.32,South,183,22.0,22.0,83,0.00,RA,,0.59,WeatherDisplay:10.37,2013-01-30 17:30:00,
2013-01-30 12:38:00,56.1,51.0,29.32,South,181,29.9,0.0,83,0.00,CLR,,0.59,WeatherDisplay:10.37,2013-01-30 17:38:00,
2013-01-30 12:43:00,56.1,51.3,29.32,SSW,196,21.9,21.9,84,0.00,CLR,,0.59,WeatherDisplay:10.37,2013-01-30 17:43:00,
2013-01-30 12:52:00,56.3,51.2,29.33,SSW,211,25.3,0.0,83,0.00,CLR,,0.59,WeatherDisplay:10.37,2013-01-30 17:52:00,
2013-01-30 12:57:00,56.3,51.5,29.34,SSW,207,20.7,20.7,84,0.00,CLR,,0.59,WeatherDisplay:10.37,2013-01-30 17:57:00,
2013-01-30 13:02:00,56.2,51.4,29.32,SSW,194,23.0,23.0,84,0.00,CLR,,0.59,WeatherDisplay:10.37,2013-01-30 18:02:00,
2013-01-30 13:07:00,56.0,51.2,29.32,SSW,192,18.4,18.4,84,0.00,CLR,,0.59,WeatherDisplay:10.37,2013-01-30 18:07:00,
2013-01-30 13:12:00,56.0,51.2,29.31,South,182,24.2,24.2,84,0.00,CLR,,0.59,WeatherDisplay:10.37,2013-01-30 18:12:00,
2013-01-30 13:17:00,55.9,51.1,29.31,South,184,18.4,18.4,84,0.00,CLR,,0.59,WeatherDisplay:10.37,2013-01-30 18:17:00,
2013-01-30 13:38:00,55.6,51.2,29.30,SSW,211,16.1,16.1,85,0.00,CLR,,0.59,WeatherDisplay:10.37,2013-01-30 18:38:00,
2013-01-30 13:43:00,55.6,50.8,29.31,SSW,198,19.6,19.6,84,0.00,CLR,,0.59,WeatherDisplay:10.37,2013-01-30 18:43:00,
2013-01-30 13:48:00,55.6,50.8,29.33,SW,219,13.8,13.8,84,0.00,CLR,,0.59,WeatherDisplay:10.37,2013-01-30 18:48:00,
2013-01-30 13:53:00,55.6,50.8,29.32,SW,234,27.6,27.6,84,0.00,CLR,,0.59,WeatherDisplay:10.37,2013-01-30 18:53:00,
2013-01-30 13:58:00,55.5,50.7,29.31,SW,233,18.4,18.4,84,0.00,CLR,,0.59,WeatherDisplay:10.37,2013-01-30 18:58:00,
2013-01-30 14:03:00,55.6,50.5,29.31,SSW,212,18.4,18.4,83,0.00,CLR,,0.59,WeatherDisplay:10.37,2013-01-30 19:03:00,
2013-01-30 14:08:00,55.6,50.5,29.30,SSW,198,17.3,17.3,83,0.00,CLR,,0.59,WeatherDisplay:10.37,2013-01-30 19:08:00,
2013-01-30 14:14:00,55.5,50.4,29.29,South,190,12.7,12.7,83,0.00,CLR,,0.59,WeatherDisplay:10.37,2013-01-30 19:14:00,
2013-01-30 14:19:00,55.6,50.5,29.30,SW,219,18.0,18.0,83,0.00,CLR,,0.59,WeatherDisplay:10.37,2013-01-30 19:19:00,
2013-01-30 14:24:00,55.7,50.6,29.30,SSW,192,17.3,17.3,83,0.00,CLR,,0.59,WeatherDisplay:10.37,2013-01-30 19:24:00,
2013-01-30 14:29:00,55.7,50.6,29.28,South,187,18.4,18.4,83,0.00,CLR,,0.59,WeatherDisplay:10.37,2013-01-30 19:29:00,
2013-01-30 14:34:00,55.6,50.2,29.27,SSW,202,13.8,13.8,82,0.00,CLR,,0.59,WeatherDisplay:10.37,2013-01-30 19:34:00,
2013-01-30 14:39:00,55.5,50.4,29.26,SW,218,20.7,20.7,83,0.00,CLR,,0.59,WeatherDisplay:10.37,2013-01-30 19:39:00,
2013-01-30 14:44:00,55.5,50.4,29.26,SSW,194,13.8,13.8,83,0.00,CLR,,0.59,WeatherDisplay:10.37,2013-01-30 19:44:00,
2013-01-30 14:49:00,55.4,50.3,29.27,South,184,20.7,20.7,83,0.00,CLR,,0.59,WeatherDisplay:10.37,2013-01-30 19:49:00,
2013-01-30 14:54:00,55.3,50.5,29.25,South,181,11.5,11.5,84,0.00,CLR,,0.59,WeatherDisplay:10.37,2013-01-30 19:54:00,
2013-01-30 14:59:00,55.2,50.4,29.27,SSW,194,15.0,15.0,84,0.00,CLR,,0.59,WeatherDisplay:10.37,2013-01-30 19:59:00,
2013-01-30 15:04:00,55.1,50.7,29.27,SSW,198,16.1,16.1,85,0.00,CLR,,0.59,WeatherDisplay:10.37,2013-01-30 20:04:00,
2013-01-30 15:09:00,55.0,50.6,29.28,South,184,15.0,15.0,85,0.00,CLR,,0.59,WeatherDisplay:10.37,2013-01-30 20:09:00,
2013-01-30 15:14:00,55.0,50.6,29.27,SSW,197,13.8,13.8,85,0.00,CLR,,0.59,WeatherDisplay:10.37,2013-01-30 20:14:00,
2013-01-30 15:19:00,55.1,50.4,29.28,South,178,17.3,17.3,84,0.00,CLR,,0.59,WeatherDisplay:10.37,2013-01-30 20:19:00,
2013-01-30 15:24:00,55.3,50.5,29.28,SSW,196,19.6,19.6,84,0.00,CLR,,0.59,WeatherDisplay:10.37,2013-01-30 20:24:00,
2013-01-30 15:29:00,55.2,50.4,29.28,SW,227,15.0,15.0,84,0.00,CLR,,0.59,WeatherDisplay:10.37,2013-01-30 20:29:00,
2013-01-30 15:34:00,55.3,50.2,29.29,South,188,12.7,12.7,83,0.00,CLR,,0.59,WeatherDisplay:10.37,2013-01-30 20:34:00,
2013-01-30 15:39:00,55.3,50.2,29.28,South,191,14.0,14.0,83,0.00,CLR,,0.59,WeatherDisplay:10.37,2013-01-30 20:39:00,
2013-01-30 15:44:00,55.3,50.2,29.28,SW,225,15.0,15.0,83,0.00,CLR,,0.59,WeatherDisplay:10.37,2013-01-30 20:44:00,
2013-01-30 15:49:00,55.3,50.2,29.28,SSW,192,13.8,13.8,83,0.00,CLR,,0.59,WeatherDisplay:10.37,2013-01-30 20:49:00,
2013-01-30 15:54:00,55.2,50.1,29.27,SSW,197,16.1,16.1,83,0.00,CLR,,0.59,WeatherDisplay:10.37,2013-01-30 20:54:00,
2013-01-30 15:59:00,55.3,50.2,29.27,SW,215,17.3,17.3,83,0.00,CLR,,0.59,WeatherDisplay:10.37,2013-01-30 20:59:00,
2013-01-30 16:04:00,55.3,50.2,29.26,South,184,18.4,18.4,83,0.00,CLR,,0.59,WeatherDisplay:10.37,2013-01-30 21:04:00,
2013-01-30 16:09:00,55.3,50.2,29.25,SSW,192,15.0,15.0,83,0.00,CLR,,0.59,WeatherDisplay:10.37,2013-01-30 21:09:00,
2013-01-30 16:14:00,55.1,50.0,29.25,South,190,16.1,16.1,83,0.00,CLR,,0.59,WeatherDisplay:10.37,2013-01-30 21:14:00,
2013-01-30 16:19:00,55.1,50.0,29.26,SSW,200,16.1,16.1,83,0.00,CLR,,0.59,WeatherDisplay:10.37,2013-01-30 21:19:00,
2013-01-30 16:24:00,55.1,50.0,29.24,South,169,17.3,17.3,83,0.00,CLR,,0.59,WeatherDisplay:10.37,2013-01-30 21:24:00,
2013-01-30 16:29:00,54.9,49.8,29.23,South,186,13.8,13.8,83,0.00,CLR,,0.59,WeatherDisplay:10.37,2013-01-30 21:29:00,
2013-01-30 16:34:00,54.9,49.8,29.23,South,182,19.6,19.6,83,0.00,CLR,,0.59,WeatherDisplay:10.37,2013-01-30 21:34:00,
2013-01-30 16:39:00,55.0,49.6,29.24,SSW,198,19.6,19.6,82,0.00,CLR,,0.59,WeatherDisplay:10.37,2013-01-30 21:39:00,
2013-01-30 16:44:00,55.0,49.6,29.24,SSW,196,27.6,27.6,82,0.00,CLR,,0.59,WeatherDisplay:10.37,2013-01-30 21:44:00,
2013-01-30 16:49:00,55.0,49.6,29.24,SSW,198,19.6,19.6,82,0.00,CLR,,0.59,WeatherDisplay:10.37,2013-01-30 21:49:00,
2013-01-30 16:54:00,54.9,49.5,29.25,South,188,18.0,18.0,82,0.00,CLR,,0.59,WeatherDisplay:10.37,2013-01-30 21:54:00,
2013-01-30 16:59:00,54.9,49.5,29.24,SSW,194,12.7,12.7,82,0.00,CLR,,0.59,WeatherDisplay:10.37,2013-01-30 21:59:00,
2013-01-30 17:04:00,54.8,49.4,29.24,SSW,200,18.4,18.4,82,0.00,CLR,,0.59,WeatherDisplay:10.37,2013-01-30 22:04:00,
2013-01-30 17:09:00,54.8,49.4,29.25,SSW,201,16.1,16.1,82,0.00,CLR,,0.59,WeatherDisplay:10.37,2013-01-30 22:09:00,
2013-01-30 17:14:00,54.8,49.4,29.25,South,170,23.0,23.0,82,0.00,CLR,,0.59,WeatherDisplay:10.37,2013-01-30 22:14:00,
2013-01-30 17:19:00,54.8,49.1,29.23,SSW,196,23.0,23.0,81,0.00,CLR,,0.59,WeatherDisplay:10.37,2013-01-30 22:19:00,
2013-01-30 17:24:00,54.6,48.9,29.23,SSW,205,24.2,24.2,81,0.00,CLR,,0.59,WeatherDisplay:10.37,2013-01-30 22:24:00,
2013-01-30 17:29:00,54.6,48.9,29.24,South,184,15.0,15.0,81,0.00,CLR,,0.59,WeatherDisplay:10.37,2013-01-30 22:29:00,
2013-01-30 17:34:00,54.5,48.8,29.23,South,182,23.0,23.0,81,0.00,CLR,,0.59,WeatherDisplay:10.37,2013-01-30 22:34:00,
2013-01-30 17:39:00,54.5,48.8,29.23,South,177,21.0,21.0,81,0.00,CLR,,0.59,WeatherDisplay:10.37,2013-01-30 22:39:00,
2013-01-30 17:44:00,54.4,48.7,29.23,SSW,201,17.3,17.3,81,0.00,CLR,,0.59,WeatherDisplay:10.37,2013-01-30 22:44:00,
2013-01-30 17:49:00,54.4,48.7,29.23,SSW,211,21.9,21.9,81,0.00,CLR,,0.59,WeatherDisplay:10.37,2013-01-30 22:49:00,
2013-01-30 17:54:00,54.4,48.7,29.23,SSW,213,19.6,19.6,81,0.00,CLR,,0.59,WeatherDisplay:10.37,2013-01-30 22:54:00,
2013-01-30 17:59:00,54.1,48.4,29.23,SW,219,18.4,18.4,81,0.00,CLR,,0.59,WeatherDisplay:10.37,2013-01-30 22:59:00,
2013-01-30 18:04:00,53.6,47.2,29.23,SSW,212,19.6,19.6,79,0.00,CLR,,0.59,WeatherDisplay:10.37,2013-01-30 23:04:00,
2013-01-30 18:09:00,51.6,46.3,29.23,SSW,202,20.7,20.7,82,0.02,RA,,0.61,WeatherDisplay:10.37,2013-01-30 23:09:00,
2013-01-30 18:14:00,50.6,45.6,29.24,SSW,194,16.1,16.1,83,0.02,RA,,0.61,WeatherDisplay:10.37,2013-01-30 23:14:00,
2013-01-30 18:19:00,49.8,45.5,29.23,SSW,194,21.9,21.9,85,0.03,RA,,0.62,WeatherDisplay:10.37,2013-01-30 23:19:00,
2013-01-30 18:24:00,49.4,45.4,29.23,South,186,19.6,19.6,86,0.03,RA,,0.62,WeatherDisplay:10.37,2013-01-30 23:24:00,
2013-01-30 18:29:00,49.5,45.5,29.23,SW,224,19.6,19.6,86,0.04,RA,,0.63,WeatherDisplay:10.37,2013-01-30 23:29:00,
2013-01-30 18:34:00,49.7,45.7,29.23,SSW,205,17.3,17.3,86,0.04,RA,,0.63,WeatherDisplay:10.37,2013-01-30 23:34:00,
2013-01-30 18:39:00,49.6,45.6,29.24,WSW,248,16.1,16.1,86,0.04,CLR,,0.63,WeatherDisplay:10.37,2013-01-30 23:39:00,
2013-01-30 18:44:00,47.8,43.5,29.25,WNW,288,19.6,19.6,85,0.04,CLR,,0.63,WeatherDisplay:10.37,2013-01-30 23:44:00,
2013-01-30 18:49:00,45.6,41.7,29.25,West,261,24.2,24.2,86,0.04,CLR,,0.63,WeatherDisplay:10.37,2013-01-30 23:49:00,
2013-01-30 18:54:00,44.4,42.2,29.25,West,273,24.2,24.2,92,0.04,CLR,,0.63,WeatherDisplay:10.37,2013-01-30 23:54:00,
2013-01-30 18:59:00,43.5,40.2,29.26,West,279,23.0,23.0,88,0.04,CLR,,0.63,WeatherDisplay:10.37,2013-01-30 23:59:00,
2013-01-30 19:04:00,42.6,39.3,29.28,West,279,31.1,31.1,88,0.04,CLR,,0.63,WeatherDisplay:10.37,2013-01-31 00:04:00,
2013-01-30 19:09:00,41.5,37.9,29.28,West,267,23.0,23.0,87,0.02,CLR,,0.63,WeatherDisplay:10.37,2013-01-31 00:09:00,
2013-01-30 19:14:00,41.1,38.1,29.29,West,261,20.7,20.7,89,0.02,CLR,,0.63,WeatherDisplay:10.37,2013-01-31 00:14:00,
2013-01-30 19:19:00,40.6,37.0,29.29,WSW,251,28.8,28.8,87,0.01,CLR,,0.63,WeatherDisplay:10.37,2013-01-31 00:19:00,
2013-01-30 19:24:00,40.4,37.1,29.29,West,269,17.3,17.3,88,0.01,CLR,,0.63,WeatherDisplay:10.37,2013-01-31 00:24:00,
2013-01-30 19:29:00,39.9,36.3,29.29,WNW,298,21.9,21.9,87,0.00,CLR,,0.63,WeatherDisplay:10.37,2013-01-31 00:29:00,
2013-01-30 19:34:00,39.4,35.9,29.28,West,277,20.7,20.7,87,0.00,CLR,,0.63,WeatherDisplay:10.37,2013-01-31 00:34:00,
2013-01-30 19:39:00,39.1,35.6,29.29,West,279,18.4,18.4,87,0.00,CLR,,0.63,WeatherDisplay:10.37,2013-01-31 00:39:00,
2013-01-30 19:44:00,39.0,35.5,29.29,West,271,21.9,21.9,87,0.00,CLR,,0.63,WeatherDisplay:10.37,2013-01-31 00:44:00,
2013-01-30 19:49:00,39.0,34.9,29.30,West,263,20.7,20.7,85,0.00,CLR,,0.63,WeatherDisplay:10.37,2013-01-31 00:49:00,
2013-01-30 19:54:00,39.0,35.2,29.30,West,275,19.6,19.6,86,0.00,CLR,,0.63,WeatherDisplay:10.37,2013-01-31 00:54:00,
2013-01-30 19:59:00,39.0,35.2,29.31,West,267,17.0,17.0,86,0.00,CLR,,0.63,WeatherDisplay:10.37,2013-01-31 00:59:00,
2013-01-30 20:04:00,38.9,35.1,29.30,WNW,282,23.0,23.0,86,0.00,CLR,,0.63,WeatherDisplay:10.37,2013-01-31 01:04:00,
2013-01-30 20:09:00,38.9,35.1,29.32,WSW,252,16.1,16.1,86,0.00,CLR,,0.63,WeatherDisplay:10.37,2013-01-31 01:09:00,
2013-01-30 20:14:00,38.8,35.0,29.31,WSW,257,23.0,23.0,86,0.00,CLR,,0.63,WeatherDisplay:10.37,2013-01-31 01:14:00,
2013-01-30 20:19:00,38.8,35.0,29.32,West,275,18.4,18.4,86,0.00,CLR,,0.63,WeatherDisplay:10.37,2013-01-31 01:19:00,
2013-01-30 20:24:00,38.6,34.2,29.32,West,281,20.7,20.7,84,0.00,CLR,,0.63,WeatherDisplay:10.37,2013-01-31 01:24:00,
2013-01-30 20:29:00,38.3,33.3,29.32,West,273,25.3,25.3,82,0.00,CLR,,0.63,WeatherDisplay:10.37,2013-01-31 01:29:00,
2013-01-30 20:34:00,38.1,32.5,29.33,West,261,25.0,25.0,80,0.00,CLR,,0.63,WeatherDisplay:10.37,2013-01-31 01:34:00,
2013-01-30 20:39:00,37.9,32.3,29.33,West,261,24.2,24.2,80,0.00,CLR,,0.63,WeatherDisplay:10.37,2013-01-31 01:39:00,
2013-01-30 20:44:00,37.7,32.1,29.33,WSW,252,25.3,25.3,80,0.00,CLR,,0.63,WeatherDisplay:10.37,2013-01-31 01:44:00,
2013-01-30 20:49:00,37.6,32.0,29.33,WSW,245,19.6,19.6,80,0.00,CLR,,0.63,WeatherDisplay:10.37,2013-01-31 01:49:00,
2013-01-30 20:54:00,37.6,32.0,29.34,West,269,23.0,23.0,80,0.00,CLR,,0.63,WeatherDisplay:10.37,2013-01-31 01:54:00,
2013-01-30 20:59:00,37.5,32.2,29.34,WSW,252,17.0,17.0,81,0.00,CLR,,0.63,WeatherDisplay:10.37,2013-01-31 01:59:00,
2013-01-30 21:04:00,37.4,32.4,29.34,West,277,15.0,15.0,82,0.00,CLR,,0.63,WeatherDisplay:10.37,2013-01-31 02:04:00,
2013-01-30 21:09:00,37.2,32.2,29.33,West,261,24.2,24.2,82,0.00,CLR,,0.63,WeatherDisplay:10.37,2013-01-31 02:09:00,
2013-01-30 21:14:00,36.8,31.5,29.34,WSW,258,27.6,27.6,81,0.00,CLR,,0.63,WeatherDisplay:10.37,2013-01-31 02:14:00,
2013-01-30 21:19:00,36.3,30.1,29.35,West,271,29.9,29.9,78,0.00,CLR,,0.63,WeatherDisplay:10.37,2013-01-31 02:19:00,
2013-01-30 21:24:00,35.8,29.9,29.36,WSW,256,26.5,26.5,79,0.00,CLR,,0.63,WeatherDisplay:10.37,2013-01-31 02:24:00,
2013-01-30 21:29:00,35.6,30.0,29.36,WSW,255,23.0,23.0,80,0.00,CLR,,0.63,WeatherDisplay:10.37,2013-01-31 02:29:00,
2013-01-30 21:34:00,35.3,29.4,29.36,West,266,26.5,26.5,79,0.00,CLR,,0.63,WeatherDisplay:10.37,2013-01-31 02:34:00,
2013-01-30 21:39:00,34.9,29.4,29.37,West,259,24.2,24.2,80,0.00,CLR,,0.63,WeatherDisplay:10.37,2013-01-31 02:39:00,
2013-01-30 21:44:00,34.8,29.3,29.37,WSW,255,24.2,24.2,80,0.00,CLR,,0.63,WeatherDisplay:10.37,2013-01-31 02:44:00,
2013-01-30 21:49:00,34.6,29.4,29.37,WNW,284,21.0,21.0,81,0.00,CLR,,0.63,WeatherDisplay:10.37,2013-01-31 02:49:00,
2013-01-30 21:54:00,34.3,29.1,29.37,West,280,20.7,20.7,81,0.00,CLR,,0.63,WeatherDisplay:10.37,2013-01-31 02:54:00,
2013-01-30 21:59:00,34.2,29.0,29.37,West,265,21.9,21.9,81,0.00,CLR,,0.63,WeatherDisplay:10.37,2013-01-31 02:59:00,
2013-01-30 22:04:00,34.2,28.7,29.38,West,267,28.8,28.8,80,0.00,CLR,,0.63,WeatherDisplay:10.37,2013-01-31 03:04:00,
2013-01-30 22:09:00,34.1,28.3,29.38,West,277,27.6,27.6,79,0.00,CLR,,0.63,WeatherDisplay:10.37,2013-01-31 03:09:00,
2013-01-30 22:14:00,34.0,28.2,29.39,West,259,21.9,21.9,79,0.00,CLR,,0.63,WeatherDisplay:10.37,2013-01-31 03:14:00,
2013-01-30 22:19:00,33.9,28.4,29.38,West,269,19.6,19.6,80,0.00,CLR,,0.63,WeatherDisplay:10.37,2013-01-31 03:19:00,
2013-01-30 22:24:00,33.8,28.3,29.39,West,274,20.7,20.7,80,0.00,CLR,,0.63,WeatherDisplay:10.37,2013-01-31 03:24:00,
2013-01-30 22:29:00,33.8,28.6,29.39,West,275,20.7,20.7,81,0.00,CLR,,0.63,WeatherDisplay:10.37,2013-01-31 03:29:00,
2013-01-30 22:34:00,33.7,28.5,29.39,West,279,24.2,24.2,81,0.00,CLR,,0.63,WeatherDisplay:10.37,2013-01-31 03:34:00,
2013-01-30 22:39:00,33.7,28.5,29.39,West,261,27.0,27.0,81,0.00,CLR,,0.63,WeatherDisplay:10.37,2013-01-31 03:39:00,
2013-01-30 22:44:00,33.7,28.8,29.41,West,275,19.6,19.6,82,0.00,CLR,,0.63,WeatherDisplay:10.37,2013-01-31 03:44:00,
2013-01-30 22:49:00,33.3,28.7,29.41,West,259,19.6,19.6,83,0.00,CLR,,0.63,WeatherDisplay:10.37,2013-01-31 03:49:00,
2013-01-30 22:54:00,33.2,28.3,29.41,WSW,244,28.8,28.8,82,0.00,CLR,,0.63,WeatherDisplay:10.37,2013-01-31 03:54:00,
2013-01-30 22:59:00,33.1,27.6,29.41,SW,229,28.8,28.8,80,0.00,CLR,,0.63,WeatherDisplay:10.37,2013-01-31 03:59:00,
2013-01-30 23:04:00,33.0,27.8,29.41,West,265,26.5,26.5,81,0.00,CLR,,0.63,WeatherDisplay:10.37,2013-01-31 04:04:00,
2013-01-30 23:09:00,32.9,28.0,29.42,West,266,20.7,20.7,82,0.00,CLR,,0.63,WeatherDisplay:10.37,2013-01-31 04:09:00,
2013-01-30 23:14:00,32.8,27.9,29.42,West,270,24.2,24.2,82,0.00,CLR,,0.63,WeatherDisplay:10.37,2013-01-31 04:14:00,
2013-01-30 23:20:00,32.7,27.8,29.42,West,260,25.3,25.3,82,0.00,CLR,,0.63,WeatherDisplay:10.37,2013-01-31 04:20:00,
2013-01-30 23:25:00,32.7,27.5,29.42,WSW,255,26.5,26.5,81,0.00,CLR,,0.63,WeatherDisplay:10.37,2013-01-31 04:25:00,
2013-01-30 23:30:00,32.6,27.4,29.44,West,269,29.9,29.9,81,0.00,CLR,,0.63,WeatherDisplay:10.37,2013-01-31 04:30:00,
2013-01-30 23:35:00,32.4,27.8,29.44,West,260,26.5,26.5,83,0.00,CLR,,0.63,WeatherDisplay:10.37,2013-01-31 04:35:00,
2013-01-30 23:40:00,32.3,27.4,29.44,WSW,258,28.8,28.8,82,0.00,CLR,,0.63,WeatherDisplay:10.37,2013-01-31 04:40:00,
2013-01-30 23:45:00,32.3,27.4,29.45,WSW,254,36.0,36.0,82,0.00,CLR,,0.63,WeatherDisplay:10.37,2013-01-31 04:45:00,
2013-01-30 23:50:00,32.3,27.4,29.45,West,263,25.3,25.3,82,0.00,CLR,,0.63,WeatherDisplay:10.37,2013-01-31 04:50:00,
2013-01-30 23:55:00,32.1,27.2,29.46,West,281,20.7,20.7,82,0.00,CLR,,0.63,WeatherDisplay:10.37,2013-01-31 04:55:00,